sensor_id;sensor_type;location;lat;lon;timestamp;temperature;humidity
5419;DHT22;2732;52.092;11.556;2023-06-22T00:04:57;20.80;99.90
5419;DHT22;2732;52.092;11.556;2023-06-22T00:09:57;20.70;99.90
5419;DHT22;2732;52.092;11.556;2023-06-22T00:14:58;20.70;99.90
5419;DHT22;2732;52.092;11.556;2023-06-22T00:19:58;20.60;99.90
5419;DHT22;2732;52.092;11.556;2023-06-22T00:25:00;20.50;99.90
5419;DHT22;2732;52.092;11.556;2023-06-22T00:30:01;20.50;99.90
5419;DHT22;2732;52.092;11.556;2023-06-22T00:35:02;20.40;99.90
5419;DHT22;2732;52.092;11.556;2023-06-22T00:40:03;20.40;99.90
5419;DHT22;2732;52.092;11.556;2023-06-22T00:45:06;20.30;99.90
5419;DHT22;2732;52.092;11.556;2023-06-22T00:50:07;20.20;99.90
5419;DHT22;2732;52.092;11.556;2023-06-22T00:55:11;20.20;99.90
5419;DHT22;2732;52.092;11.556;2023-06-22T01:00:13;20.10;99.90
5419;DHT22;2732;52.092;11.556;2023-06-22T01:05:19;20.10;99.90
5419;DHT22;2732;52.092;11.556;2023-06-22T01:10:49;20.10;99.90
5419;DHT22;2732;52.092;11.556;2023-06-22T01:16:03;20.00;99.90
5419;DHT22;2732;52.092;11.556;2023-06-22T01:21:08;19.90;99.90
5419;DHT22;2732;52.092;11.556;2023-06-22T01:26:43;19.90;99.90
5419;DHT22;2732;52.092;11.556;2023-06-22T01:31:56;19.80;99.90
5419;DHT22;2732;52.092;11.556;2023-06-22T01:36:59;19.80;99.90
5419;DHT22;2732;52.092;11.556;2023-06-22T01:42:00;19.80;99.90
5419;DHT22;2732;52.092;11.556;2023-06-22T01:47:02;19.70;99.90
5419;DHT22;2732;52.092;11.556;2023-06-22T01:52:04;19.70;99.90
5419;DHT22;2732;52.092;11.556;2023-06-22T01:57:04;19.60;99.90
5419;DHT22;2732;52.092;11.556;2023-06-22T02:02:10;19.60;99.90
5419;DHT22;2732;52.092;11.556;2023-06-22T02:07:17;19.50;99.90
5419;DHT22;2732;52.092;11.556;2023-06-22T02:12:25;19.50;99.90
5419;DHT22;2732;52.092;11.556;2023-06-22T02:17:28;19.40;99.90
5419;DHT22;2732;52.092;11.556;2023-06-22T02:22:33;19.30;99.90
5419;DHT22;2732;52.092;11.556;2023-06-22T02:27:34;19.30;99.90
5419;DHT22;2732;52.092;11.556;2023-06-22T02:32:35;19.20;99.90
5419;DHT22;2732;52.092;11.556;2023-06-22T02:37:37;19.20;99.90
5419;DHT22;2732;52.092;11.556;2023-06-22T02:42:41;19.10;99.90
5419;DHT22;2732;52.092;11.556;2023-06-22T02:47:42;19.10;99.90
5419;DHT22;2732;52.092;11.556;2023-06-22T02:52:42;19.10;99.90
5419;DHT22;2732;52.092;11.556;2023-06-22T02:57:43;19.10;99.90
5419;DHT22;2732;52.092;11.556;2023-06-22T03:02:45;19.10;99.90
5419;DHT22;2732;52.092;11.556;2023-06-22T03:07:46;19.00;99.90
5419;DHT22;2732;52.092;11.556;2023-06-22T03:12:47;19.10;99.90
5419;DHT22;2732;52.092;11.556;2023-06-22T03:17:47;19.00;99.90
5419;DHT22;2732;52.092;11.556;2023-06-22T03:22:48;19.10;99.90
5419;DHT22;2732;52.092;11.556;2023-06-22T03:27:49;19.10;99.90
5419;DHT22;2732;52.092;11.556;2023-06-22T03:32:49;19.10;99.90
5419;DHT22;2732;52.092;11.556;2023-06-22T03:37:50;19.20;99.90
5419;DHT22;2732;52.092;11.556;2023-06-22T03:42:53;19.20;99.90
5419;DHT22;2732;52.092;11.556;2023-06-22T03:47:54;19.30;99.90
5419;DHT22;2732;52.092;11.556;2023-06-22T03:52:54;19.30;99.90
5419;DHT22;2732;52.092;11.556;2023-06-22T03:57:55;19.30;99.90
5419;DHT22;2732;52.092;11.556;2023-06-22T04:02:57;19.40;99.90
5419;DHT22;2732;52.092;11.556;2023-06-22T04:07:57;19.50;99.90
5419;DHT22;2732;52.092;11.556;2023-06-22T04:12:58;19.50;99.90
5419;DHT22;2732;52.092;11.556;2023-06-22T04:17:59;19.60;99.90
5419;DHT22;2732;52.092;11.556;2023-06-22T04:22:59;19.70;99.90
5419;DHT22;2732;52.092;11.556;2023-06-22T04:28:00;19.80;99.90
5419;DHT22;2732;52.092;11.556;2023-06-22T04:33:03;19.90;99.90
5419;DHT22;2732;52.092;11.556;2023-06-22T04:38:04;20.00;99.90
5419;DHT22;2732;52.092;11.556;2023-06-22T04:43:04;20.20;99.90
5419;DHT22;2732;52.092;11.556;2023-06-22T04:48:07;20.30;99.90
5419;DHT22;2732;52.092;11.556;2023-06-22T04:53:09;20.50;99.90
5419;DHT22;2732;52.092;11.556;2023-06-22T04:58:13;20.70;99.90
5419;DHT22;2732;52.092;11.556;2023-06-22T05:03:14;20.90;99.90
5419;DHT22;2732;52.092;11.556;2023-06-22T05:08:18;21.00;99.90
5419;DHT22;2732;52.092;11.556;2023-06-22T05:13:19;21.10;99.90
5419;DHT22;2732;52.092;11.556;2023-06-22T05:18:22;21.30;99.90
5419;DHT22;2732;52.092;11.556;2023-06-22T05:23:23;21.40;99.90
5419;DHT22;2732;52.092;11.556;2023-06-22T05:28:24;21.40;99.90
5419;DHT22;2732;52.092;11.556;2023-06-22T05:33:24;21.50;99.90
5419;DHT22;2732;52.092;11.556;2023-06-22T05:38:25;21.70;99.90
5419;DHT22;2732;52.092;11.556;2023-06-22T05:43:26;21.90;99.90
5419;DHT22;2732;52.092;11.556;2023-06-22T05:48:26;22.10;99.90
5419;DHT22;2732;52.092;11.556;2023-06-22T05:53:27;22.40;99.90
5419;DHT22;2732;52.092;11.556;2023-06-22T05:58:28;22.60;99.90
5419;DHT22;2732;52.092;11.556;2023-06-22T06:03:28;22.80;99.90
5419;DHT22;2732;52.092;11.556;2023-06-22T06:08:29;22.90;99.90
5419;DHT22;2732;52.092;11.556;2023-06-22T06:13:29;23.00;99.90
5419;DHT22;2732;52.092;11.556;2023-06-22T06:18:30;23.10;99.90
5419;DHT22;2732;52.092;11.556;2023-06-22T06:23:33;23.20;99.90
5419;DHT22;2732;52.092;11.556;2023-06-22T06:28:34;23.30;99.90
5419;DHT22;2732;52.092;11.556;2023-06-22T06:33:36;23.50;99.90
5419;DHT22;2732;52.092;11.556;2023-06-22T06:38:37;23.70;99.90
5419;DHT22;2732;52.092;11.556;2023-06-22T06:43:37;23.80;99.90
5419;DHT22;2732;52.092;11.556;2023-06-22T06:48:38;24.00;99.90
5419;DHT22;2732;52.092;11.556;2023-06-22T06:53:38;24.30;99.90
5419;DHT22;2732;52.092;11.556;2023-06-22T06:58:41;24.50;99.90
5419;DHT22;2732;52.092;11.556;2023-06-22T07:03:45;24.70;99.90
5419;DHT22;2732;52.092;11.556;2023-06-22T07:08:45;24.90;99.90
5419;DHT22;2732;52.092;11.556;2023-06-22T07:13:46;25.10;99.90
5419;DHT22;2732;52.092;11.556;2023-06-22T07:18:47;25.30;99.90
5419;DHT22;2732;52.092;11.556;2023-06-22T07:23:47;25.60;99.90
5419;DHT22;2732;52.092;11.556;2023-06-22T07:28:48;25.80;99.90
5419;DHT22;2732;52.092;11.556;2023-06-22T07:33:48;25.90;99.90
5419;DHT22;2732;52.092;11.556;2023-06-22T07:38:49;26.10;99.90
5419;DHT22;2732;52.092;11.556;2023-06-22T07:43:49;26.40;99.90
5419;DHT22;2732;52.092;11.556;2023-06-22T07:48:53;26.70;99.90
5419;DHT22;2732;52.092;11.556;2023-06-22T07:53:54;27.30;99.90
5419;DHT22;2732;52.092;11.556;2023-06-22T07:58:55;27.50;99.90
5419;DHT22;2732;52.092;11.556;2023-06-22T08:03:58;27.60;99.90
5419;DHT22;2732;52.092;11.556;2023-06-22T08:08:59;27.70;99.90
5419;DHT22;2732;52.092;11.556;2023-06-22T08:13:59;28.20;99.40
5419;DHT22;2732;52.092;11.556;2023-06-22T08:19:00;28.70;98.80
5419;DHT22;2732;52.092;11.556;2023-06-22T08:24:01;29.10;97.80
5419;DHT22;2732;52.092;11.556;2023-06-22T08:29:03;29.30;96.70
5419;DHT22;2732;52.092;11.556;2023-06-22T08:34:04;29.40;96.50
5419;DHT22;2732;52.092;11.556;2023-06-22T08:39:04;29.30;96.30
5419;DHT22;2732;52.092;11.556;2023-06-22T08:44:05;29.20;96.40
5419;DHT22;2732;52.092;11.556;2023-06-22T08:49:06;29.60;95.90
5419;DHT22;2732;52.092;11.556;2023-06-22T08:54:07;30.10;95.00
5419;DHT22;2732;52.092;11.556;2023-06-22T08:59:07;30.30;94.30
5419;DHT22;2732;52.092;11.556;2023-06-22T09:04:08;30.70;93.80
5419;DHT22;2732;52.092;11.556;2023-06-22T09:09:09;31.30;93.30
5419;DHT22;2732;52.092;11.556;2023-06-22T09:14:12;32.00;92.10
5419;DHT22;2732;52.092;11.556;2023-06-22T09:19:13;32.40;91.20
5419;DHT22;2732;52.092;11.556;2023-06-22T09:24:15;32.60;90.30
5419;DHT22;2732;52.092;11.556;2023-06-22T09:29:16;32.50;90.40
5419;DHT22;2732;52.092;11.556;2023-06-22T09:34:17;32.40;90.00
5419;DHT22;2732;52.092;11.556;2023-06-22T09:39:20;32.40;90.20
5419;DHT22;2732;52.092;11.556;2023-06-22T09:44:21;32.30;89.80
5419;DHT22;2732;52.092;11.556;2023-06-22T09:49:21;32.30;90.00
5419;DHT22;2732;52.092;11.556;2023-06-22T09:54:23;32.20;89.50
5419;DHT22;2732;52.092;11.556;2023-06-22T09:59:23;32.60;89.20
5419;DHT22;2732;52.092;11.556;2023-06-22T10:04:24;33.00;88.60
5419;DHT22;2732;52.092;11.556;2023-06-22T10:09:25;33.80;85.60
5419;DHT22;2732;52.092;11.556;2023-06-22T10:14:26;34.30;84.20
5419;DHT22;2732;52.092;11.556;2023-06-22T10:19:29;34.20;84.00
5419;DHT22;2732;52.092;11.556;2023-06-22T10:24:30;34.30;82.30
5419;DHT22;2732;52.092;11.556;2023-06-22T10:29:32;34.40;82.60
5419;DHT22;2732;52.092;11.556;2023-06-22T10:34:33;34.70;82.00
5419;DHT22;2732;52.092;11.556;2023-06-22T10:39:35;35.20;80.70
5419;DHT22;2732;52.092;11.556;2023-06-22T10:44:35;35.30;79.80
5419;DHT22;2732;52.092;11.556;2023-06-22T10:49:36;35.30;79.30
5419;DHT22;2732;52.092;11.556;2023-06-22T10:54:37;35.60;78.50
5419;DHT22;2732;52.092;11.556;2023-06-22T10:59:38;36.30;76.00
5419;DHT22;2732;52.092;11.556;2023-06-22T11:04:38;36.50;74.80
5419;DHT22;2732;52.092;11.556;2023-06-22T11:09:39;36.50;74.60
5419;DHT22;2732;52.092;11.556;2023-06-22T11:14:40;36.60;74.00
5419;DHT22;2732;52.092;11.556;2023-06-22T11:19:41;36.90;73.20
5419;DHT22;2732;52.092;11.556;2023-06-22T11:24:41;37.10;71.40
5419;DHT22;2732;52.092;11.556;2023-06-22T11:29:42;37.10;71.10
5419;DHT22;2732;52.092;11.556;2023-06-22T11:34:42;36.90;71.20
5419;DHT22;2732;52.092;11.556;2023-06-22T11:39:43;36.80;71.00
5419;DHT22;2732;52.092;11.556;2023-06-22T11:44:44;36.50;71.00
5419;DHT22;2732;52.092;11.556;2023-06-22T11:49:44;37.30;70.30
5419;DHT22;2732;52.092;11.556;2023-06-22T11:54:45;37.30;69.30
5419;DHT22;2732;52.092;11.556;2023-06-22T11:59:46;37.30;69.20
5419;DHT22;2732;52.092;11.556;2023-06-22T12:04:46;37.60;68.30
5419;DHT22;2732;52.092;11.556;2023-06-22T12:09:47;37.00;68.40
5419;DHT22;2732;52.092;11.556;2023-06-22T12:14:47;36.50;68.60
5419;DHT22;2732;52.092;11.556;2023-06-22T12:19:48;37.00;69.10
5419;DHT22;2732;52.092;11.556;2023-06-22T12:24:50;37.80;68.60
5419;DHT22;2732;52.092;11.556;2023-06-22T12:29:50;38.20;67.10
5419;DHT22;2732;52.092;11.556;2023-06-22T12:34:53;38.20;66.10
5419;DHT22;2732;52.092;11.556;2023-06-22T12:39:55;38.40;66.50
5419;DHT22;2732;52.092;11.556;2023-06-22T12:44:55;38.30;65.50
5419;DHT22;2732;52.092;11.556;2023-06-22T12:49:56;38.00;65.90
5419;DHT22;2732;52.092;11.556;2023-06-22T12:54:57;38.20;65.60
5419;DHT22;2732;52.092;11.556;2023-06-22T12:59:57;38.40;64.80
5419;DHT22;2732;52.092;11.556;2023-06-22T13:05:01;38.50;64.30
5419;DHT22;2732;52.092;11.556;2023-06-22T13:10:02;38.60;64.70
5419;DHT22;2732;52.092;11.556;2023-06-22T13:15:04;38.70;63.90
5419;DHT22;2732;52.092;11.556;2023-06-22T13:20:05;38.30;62.90
5419;DHT22;2732;52.092;11.556;2023-06-22T13:25:07;38.20;63.20
5419;DHT22;2732;52.092;11.556;2023-06-22T13:30:14;38.60;63.50
5419;DHT22;2732;52.092;11.556;2023-06-22T13:35:15;38.60;63.60
5419;DHT22;2732;52.092;11.556;2023-06-22T13:40:16;38.60;62.40
5419;DHT22;2732;52.092;11.556;2023-06-22T13:45:16;38.10;62.30
5419;DHT22;2732;52.092;11.556;2023-06-22T13:50:19;38.10;63.40
5419;DHT22;2732;52.092;11.556;2023-06-22T13:55:19;38.00;63.30
5419;DHT22;2732;52.092;11.556;2023-06-22T14:00:21;37.70;64.80
5419;DHT22;2732;52.092;11.556;2023-06-22T14:05:21;37.80;63.80
5419;DHT22;2732;52.092;11.556;2023-06-22T14:10:22;37.90;63.80
5419;DHT22;2732;52.092;11.556;2023-06-22T14:15:23;38.00;63.30
5419;DHT22;2732;52.092;11.556;2023-06-22T14:20:23;38.10;62.50
5419;DHT22;2732;52.092;11.556;2023-06-22T14:25:24;38.10;62.30
5419;DHT22;2732;52.092;11.556;2023-06-22T14:30:24;37.80;63.40
5419;DHT22;2732;52.092;11.556;2023-06-22T14:35:25;37.00;63.50
5419;DHT22;2732;52.092;11.556;2023-06-22T14:40:25;36.50;64.50
5419;DHT22;2732;52.092;11.556;2023-06-22T14:45:26;36.10;65.40
5419;DHT22;2732;52.092;11.556;2023-06-22T14:50:27;35.70;65.50
5419;DHT22;2732;52.092;11.556;2023-06-22T14:55:27;35.70;65.60
5419;DHT22;2732;52.092;11.556;2023-06-22T15:00:28;35.50;66.10
5419;DHT22;2732;52.092;11.556;2023-06-22T15:05:28;35.30;65.90
5419;DHT22;2732;52.092;11.556;2023-06-22T15:10:29;35.30;66.50
5419;DHT22;2732;52.092;11.556;2023-06-22T15:15:29;35.00;66.70
5419;DHT22;2732;52.092;11.556;2023-06-22T15:20:30;34.90;67.20
5419;DHT22;2732;52.092;11.556;2023-06-22T15:25:31;34.60;67.10
5419;DHT22;2732;52.092;11.556;2023-06-22T15:30:33;34.40;67.90
5419;DHT22;2732;52.092;11.556;2023-06-22T15:35:34;34.30;67.90
5419;DHT22;2732;52.092;11.556;2023-06-22T15:40:35;33.90;68.30
5419;DHT22;2732;52.092;11.556;2023-06-22T15:45:36;33.70;68.20
5419;DHT22;2732;52.092;11.556;2023-06-22T15:50:36;33.30;68.80
5419;DHT22;2732;52.092;11.556;2023-06-22T15:55:37;33.10;69.10
5419;DHT22;2732;52.092;11.556;2023-06-22T16:00:38;33.00;70.00
5419;DHT22;2732;52.092;11.556;2023-06-22T16:05:38;32.80;69.20
5419;DHT22;2732;52.092;11.556;2023-06-22T16:10:39;32.60;69.50
5419;DHT22;2732;52.092;11.556;2023-06-22T16:15:40;32.40;69.10
5419;DHT22;2732;52.092;11.556;2023-06-22T16:20:41;32.30;69.90
5419;DHT22;2732;52.092;11.556;2023-06-22T16:25:42;32.10;70.20
5419;DHT22;2732;52.092;11.556;2023-06-22T16:30:43;31.90;70.60
5419;DHT22;2732;52.092;11.556;2023-06-22T16:35:44;31.70;70.50
5419;DHT22;2732;52.092;11.556;2023-06-22T16:40:45;31.40;70.50
5419;DHT22;2732;52.092;11.556;2023-06-22T16:45:46;31.20;70.90
5419;DHT22;2732;52.092;11.556;2023-06-22T16:50:46;30.90;71.30
5419;DHT22;2732;52.092;11.556;2023-06-22T16:55:49;30.70;71.30
5419;DHT22;2732;52.092;11.556;2023-06-22T17:00:54;30.40;71.00
5419;DHT22;2732;52.092;11.556;2023-06-22T17:05:56;30.20;71.60
5419;DHT22;2732;52.092;11.556;2023-06-22T17:10:58;29.90;71.70
5419;DHT22;2732;52.092;11.556;2023-06-22T17:16:01;29.60;72.10
5419;DHT22;2732;52.092;11.556;2023-06-22T17:21:02;29.40;72.30
5419;DHT22;2732;52.092;11.556;2023-06-22T17:26:07;29.20;72.70
5419;DHT22;2732;52.092;11.556;2023-06-22T17:31:15;29.00;73.10
5419;DHT22;2732;52.092;11.556;2023-06-22T17:36:16;28.80;73.40
5419;DHT22;2732;52.092;11.556;2023-06-22T17:41:16;28.60;73.80
5419;DHT22;2732;52.092;11.556;2023-06-22T17:46:17;28.40;75.70
5419;DHT22;2732;52.092;11.556;2023-06-22T17:51:18;28.20;77.90
5419;DHT22;2732;52.092;11.556;2023-06-22T17:56:18;27.90;82.00
5419;DHT22;2732;52.092;11.556;2023-06-22T18:01:37;27.10;82.80
5419;DHT22;2732;52.092;11.556;2023-06-22T18:06:40;26.40;85.60
5419;DHT22;2732;52.092;11.556;2023-06-22T18:11:47;25.90;89.30
5419;DHT22;2732;52.092;11.556;2023-06-22T18:16:50;25.40;91.20
5419;DHT22;2732;52.092;11.556;2023-06-22T18:21:51;24.90;93.10
5419;DHT22;2732;52.092;11.556;2023-06-22T18:26:56;24.30;97.40
5419;DHT22;2732;52.092;11.556;2023-06-22T18:31:56;23.80;99.80
5419;DHT22;2732;52.092;11.556;2023-06-22T18:36:59;23.50;99.90
5419;DHT22;2732;52.092;11.556;2023-06-22T18:42:04;23.30;99.90
5419;DHT22;2732;52.092;11.556;2023-06-22T18:47:06;23.10;99.90
5419;DHT22;2732;52.092;11.556;2023-06-22T18:57:21;22.60;99.90
5419;DHT22;2732;52.092;11.556;2023-06-22T19:02:45;22.50;99.90
5419;DHT22;2732;52.092;11.556;2023-06-22T19:13:23;22.20;99.90
5419;DHT22;2732;52.092;11.556;2023-06-22T19:18:32;22.00;99.90
5419;DHT22;2732;52.092;11.556;2023-06-22T19:23:39;21.80;99.90
5419;DHT22;2732;52.092;11.556;2023-06-22T19:28:55;21.70;99.90
5419;DHT22;2732;52.092;11.556;2023-06-22T19:34:04;21.60;99.90
5419;DHT22;2732;52.092;11.556;2023-06-22T19:39:05;21.40;99.90
5419;DHT22;2732;52.092;11.556;2023-06-22T19:44:06;21.30;99.90
5419;DHT22;2732;52.092;11.556;2023-06-22T19:49:06;21.20;99.90
5419;DHT22;2732;52.092;11.556;2023-06-22T19:54:08;21.10;99.90
5419;DHT22;2732;52.092;11.556;2023-06-22T19:59:14;21.00;99.90
5419;DHT22;2732;52.092;11.556;2023-06-22T20:04:20;20.90;99.90
5419;DHT22;2732;52.092;11.556;2023-06-22T20:09:23;20.90;99.90
5419;DHT22;2732;52.092;11.556;2023-06-22T20:14:30;20.80;99.90
5419;DHT22;2732;52.092;11.556;2023-06-22T20:19:36;20.70;99.90
5419;DHT22;2732;52.092;11.556;2023-06-22T20:24:37;20.60;99.90
5419;DHT22;2732;52.092;11.556;2023-06-22T20:29:39;20.60;99.90
5419;DHT22;2732;52.092;11.556;2023-06-22T20:34:42;20.60;99.90
5419;DHT22;2732;52.092;11.556;2023-06-22T20:39:47;20.50;99.90
5419;DHT22;2732;52.092;11.556;2023-06-22T20:44:48;20.50;99.90
5419;DHT22;2732;52.092;11.556;2023-06-22T20:49:50;20.40;99.90
5419;DHT22;2732;52.092;11.556;2023-06-22T20:54:51;20.40;99.90
5419;DHT22;2732;52.092;11.556;2023-06-22T20:59:54;20.30;99.90
5419;DHT22;2732;52.092;11.556;2023-06-22T21:04:55;20.30;99.90
5419;DHT22;2732;52.092;11.556;2023-06-22T21:09:57;20.20;99.90
5419;DHT22;2732;52.092;11.556;2023-06-22T21:14:57;20.10;99.90
5419;DHT22;2732;52.092;11.556;2023-06-22T21:19:59;20.20;99.90
5419;DHT22;2732;52.092;11.556;2023-06-22T21:25:05;20.10;99.90
5419;DHT22;2732;52.092;11.556;2023-06-22T21:30:09;20.00;99.90
5419;DHT22;2732;52.092;11.556;2023-06-22T21:35:11;20.00;99.90
5419;DHT22;2732;52.092;11.556;2023-06-22T21:40:12;20.00;99.90
5419;DHT22;2732;52.092;11.556;2023-06-22T21:45:15;19.90;99.90
5419;DHT22;2732;52.092;11.556;2023-06-22T21:50:15;19.90;99.90
5419;DHT22;2732;52.092;11.556;2023-06-22T21:55:17;19.80;99.90
5419;DHT22;2732;52.092;11.556;2023-06-22T22:00:17;19.80;99.90
5419;DHT22;2732;52.092;11.556;2023-06-22T22:05:19;19.80;99.90
5419;DHT22;2732;52.092;11.556;2023-06-22T22:10:19;19.70;99.90
5419;DHT22;2732;52.092;11.556;2023-06-22T22:15:20;19.70;99.90
5419;DHT22;2732;52.092;11.556;2023-06-22T22:20:21;19.70;99.90
5419;DHT22;2732;52.092;11.556;2023-06-22T22:25:21;19.70;99.90
5419;DHT22;2732;52.092;11.556;2023-06-22T22:30:26;19.60;99.90
5419;DHT22;2732;52.092;11.556;2023-06-22T22:35:27;19.60;99.90
5419;DHT22;2732;52.092;11.556;2023-06-22T22:40:27;19.60;99.90
5419;DHT22;2732;52.092;11.556;2023-06-22T22:45:28;19.60;99.90
5419;DHT22;2732;52.092;11.556;2023-06-22T22:50:28;19.50;99.90
5419;DHT22;2732;52.092;11.556;2023-06-22T22:55:29;19.50;99.90
5419;DHT22;2732;52.092;11.556;2023-06-22T23:00:31;19.50;99.90
5419;DHT22;2732;52.092;11.556;2023-06-22T23:05:32;19.50;99.90
5419;DHT22;2732;52.092;11.556;2023-06-22T23:10:35;19.50;99.90
5419;DHT22;2732;52.092;11.556;2023-06-22T23:15:36;19.50;99.90
5419;DHT22;2732;52.092;11.556;2023-06-22T23:20:37;19.40;99.90
5419;DHT22;2732;52.092;11.556;2023-06-22T23:25:37;19.40;99.90
5419;DHT22;2732;52.092;11.556;2023-06-22T23:30:38;19.40;99.90
5419;DHT22;2732;52.092;11.556;2023-06-22T23:35:39;19.40;99.90
5419;DHT22;2732;52.092;11.556;2023-06-22T23:40:40;19.40;99.90
5419;DHT22;2732;52.092;11.556;2023-06-22T23:45:41;19.40;99.90
5419;DHT22;2732;52.092;11.556;2023-06-22T23:50:41;19.40;99.90
5419;DHT22;2732;52.092;11.556;2023-06-22T23:55:42;19.40;99.90
